Granite Falls, WA

8:36 AM PDT on March 23, 2017 (GMT -0700)
Bogart Meadows | | Change Station
Active Advisory: Flood Warning

Elev 486 ft 48.09 °N, 121.96 °W | Updated 1 minute ago

Overcast
Overcast
43.0 °F
Feels Like 43 °F
N
0.0
Wind Variable Wind from West
Gusts 0.0 mph

Today
High -- | Low -- °F
--% Chance of Precip.
Yesterday
High -- | Low -- °F
Precip. -- in
Pressure 30.10 in
Visibility 10.0 miles
Clouds Overcast 3900 ft
Windchill 43 °F
Dew Point 38 °F
Humidity 82%
Rainfall 0.00 in
Snow Depth Not available.
7:03 AM 7:25 PM
Waning Crescent, 22% visible
METAR KAWO 231535Z AUTO 14010KT 10SM OVC039 07/00 A3010 RMK AO1
Pressure 30.10 in
Visibility 10.0 miles
Clouds Overcast 3900 ft
Windchill 43 °F
Dew Point 38 °F
Humidity 82%
Rainfall 0.00 in
Snow Depth Not available.
7:03 AM 7:25 PM
Waning Crescent, 22% visible
METAR KAWO 231535Z AUTO 14010KT 10SM OVC039 07/00 A3010 RMK AO1

Get Your Daily Forecast Email!

Thanks for signing up!

Be on the lookout for a verification email in your inbox.

You'll start receiving severe weather alerts in your inbox..

×

10-Day Weather Forecast

Almanac

Astronomy

Mar. 23, 2017 Rise Set
Actual Time
Civil Twilight
Nautical Twilight
Astronomical Twilight
Moon
Length of Visible Light
Length of Day
Tomorrow will be .
, % of the Moon is Illuminated

Today's Extremes

State Highs State Lows

Community

WunderPhotos

Upload Photos

1,962,540 photos uploaded!

WunderBlog® & News

Nearby

Air Quality

  Air Quality AQ Index Pollutant
Not available.

Snow Depth

Station Depth Elevation

Earthquake Activity

City Distance Mag. Time & Date
Minimum magnitude displayed is 2.5.

Earthquake Activity

City Distance Mag. Time & Date
Minimum magnitude displayed is 2.5.

Coastal Water Temperatures

Place Temperature

Stations

Nearby Weather Stations

Station Location Temp. Windchill Dew Point Humidity Wind Precip. Elev Updated Type
                   

Watches & Warnings

Flood Warning
Issued: 6:51 AM PDT Mar. 23, 2017 – National Weather Service

The Flood Warning continues for
the White River at r street
* from 6 am Monday until Friday morning.
* At 5:45 am Thursday the flow was 5070 cfs.
* Flood flow is 5500 cfs.
* Minor flooding is forecast.
* Forecast... the river will remain near the flood flow of 5500 cfs
through Friday afternoon.
* Impact... at 5500 cfs, river flooding is likely to occur near low
bank areas around and downstream of the Stewart street bridge in
the city of Sumner.


Lat... Lon 4721 12214 4724 12219 4719 12223 4724 12230 4732 12226
      4732 12214